sensor_id;sensor_type;location;lat;lon;timestamp;temperature;humidity
13354;DHT22;6746;50.892;4.064;2022-08-20T00:01:30;18.30;99.90
13354;DHT22;6746;50.892;4.064;2022-08-20T00:04:08;18.30;99.90
13354;DHT22;6746;50.892;4.064;2022-08-20T00:06:47;18.30;99.90
13354;DHT22;6746;50.892;4.064;2022-08-20T00:09:28;18.40;99.90
13354;DHT22;6746;50.892;4.064;2022-08-20T00:12:08;18.40;99.90
13354;DHT22;6746;50.892;4.064;2022-08-20T00:14:47;18.40;99.90
13354;DHT22;6746;50.892;4.064;2022-08-20T00:17:26;18.30;99.90
13354;DHT22;6746;50.892;4.064;2022-08-20T00:20:05;18.30;99.90
13354;DHT22;6746;50.892;4.064;2022-08-20T00:22:42;18.20;99.90
13354;DHT22;6746;50.892;4.064;2022-08-20T00:25:21;18.20;99.90
13354;DHT22;6746;50.892;4.064;2022-08-20T00:27:59;18.10;99.90
13354;DHT22;6746;50.892;4.064;2022-08-20T00:30:38;18.00;99.90
13354;DHT22;6746;50.892;4.064;2022-08-20T00:33:17;18.00;99.90
13354;DHT22;6746;50.892;4.064;2022-08-20T00:35:55;18.10;99.90
13354;DHT22;6746;50.892;4.064;2022-08-20T00:38:36;18.10;99.90
13354;DHT22;6746;50.892;4.064;2022-08-20T00:41:18;18.10;99.90
13354;DHT22;6746;50.892;4.064;2022-08-20T00:46:48;18.10;99.90
13354;DHT22;6746;50.892;4.064;2022-08-20T00:49:27;18.00;99.90
13354;DHT22;6746;50.892;4.064;2022-08-20T00:52:10;18.00;99.90
13354;DHT22;6746;50.892;4.064;2022-08-20T00:54:46;18.00;99.90
13354;DHT22;6746;50.892;4.064;2022-08-20T00:57:25;18.00;99.90
13354;DHT22;6746;50.892;4.064;2022-08-20T01:00:03;17.90;99.90
13354;DHT22;6746;50.892;4.064;2022-08-20T01:02:40;17.80;99.90
13354;DHT22;6746;50.892;4.064;2022-08-20T01:05:18;17.70;99.90
13354;DHT22;6746;50.892;4.064;2022-08-20T01:08:05;17.70;99.90
13354;DHT22;6746;50.892;4.064;2022-08-20T01:10:43;17.60;99.90
13354;DHT22;6746;50.892;4.064;2022-08-20T01:13:26;17.60;99.90
13354;DHT22;6746;50.892;4.064;2022-08-20T01:16:07;17.50;99.90
13354;DHT22;6746;50.892;4.064;2022-08-20T01:18:43;17.30;99.90
13354;DHT22;6746;50.892;4.064;2022-08-20T01:21:21;17.30;99.90
13354;DHT22;6746;50.892;4.064;2022-08-20T01:24:20;17.20;99.90
13354;DHT22;6746;50.892;4.064;2022-08-20T01:26:57;17.10;99.90
13354;DHT22;6746;50.892;4.064;2022-08-20T01:29:43;17.00;99.90
13354;DHT22;6746;50.892;4.064;2022-08-20T01:32:21;17.00;99.90
13354;DHT22;6746;50.892;4.064;2022-08-20T01:35:03;16.90;99.90
13354;DHT22;6746;50.892;4.064;2022-08-20T01:37:41;16.80;99.90
13354;DHT22;6746;50.892;4.064;2022-08-20T01:40:23;16.80;99.90
13354;DHT22;6746;50.892;4.064;2022-08-20T01:42:57;16.80;99.90
13354;DHT22;6746;50.892;4.064;2022-08-20T01:45:39;16.70;99.90
13354;DHT22;6746;50.892;4.064;2022-08-20T01:48:17;16.60;99.90
13354;DHT22;6746;50.892;4.064;2022-08-20T01:51:11;16.60;99.90
13354;DHT22;6746;50.892;4.064;2022-08-20T01:53:37;16.60;99.90
13354;DHT22;6746;50.892;4.064;2022-08-20T01:56:18;16.60;99.90
13354;DHT22;6746;50.892;4.064;2022-08-20T01:58:56;16.50;99.90
13354;DHT22;6746;50.892;4.064;2022-08-20T02:01:37;16.50;99.90
13354;DHT22;6746;50.892;4.064;2022-08-20T02:04:15;16.50;99.90
13354;DHT22;6746;50.892;4.064;2022-08-20T02:06:56;16.40;99.90
13354;DHT22;6746;50.892;4.064;2022-08-20T02:09:34;16.40;99.90
13354;DHT22;6746;50.892;4.064;2022-08-20T02:12:11;16.30;99.90
13354;DHT22;6746;50.892;4.064;2022-08-20T02:14:50;16.30;99.90
13354;DHT22;6746;50.892;4.064;2022-08-20T02:17:28;16.30;99.90
13354;DHT22;6746;50.892;4.064;2022-08-20T02:20:09;16.20;99.90
13354;DHT22;6746;50.892;4.064;2022-08-20T02:22:58;16.20;99.90
13354;DHT22;6746;50.892;4.064;2022-08-20T02:25:36;16.20;99.90
13354;DHT22;6746;50.892;4.064;2022-08-20T02:28:15;16.10;99.90
13354;DHT22;6746;50.892;4.064;2022-08-20T02:30:52;16.10;99.90
13354;DHT22;6746;50.892;4.064;2022-08-20T02:33:33;16.00;99.90
13354;DHT22;6746;50.892;4.064;2022-08-20T02:36:12;16.00;99.90
13354;DHT22;6746;50.892;4.064;2022-08-20T02:38:57;16.00;99.90
13354;DHT22;6746;50.892;4.064;2022-08-20T02:41:36;15.90;99.90
13354;DHT22;6746;50.892;4.064;2022-08-20T02:44:17;15.90;99.90
13354;DHT22;6746;50.892;4.064;2022-08-20T02:46:55;15.90;99.90
13354;DHT22;6746;50.892;4.064;2022-08-20T02:49:33;15.90;99.90
13354;DHT22;6746;50.892;4.064;2022-08-20T02:52:11;15.90;99.90
13354;DHT22;6746;50.892;4.064;2022-08-20T02:54:50;15.80;99.90
13354;DHT22;6746;50.892;4.064;2022-08-20T02:57:28;15.80;99.90
13354;DHT22;6746;50.892;4.064;2022-08-20T03:00:16;15.70;99.90
13354;DHT22;6746;50.892;4.064;2022-08-20T03:02:53;15.70;99.90
13354;DHT22;6746;50.892;4.064;2022-08-20T03:05:42;15.60;99.90
13354;DHT22;6746;50.892;4.064;2022-08-20T03:08:20;15.60;99.90
13354;DHT22;6746;50.892;4.064;2022-08-20T03:10:58;15.60;99.90
13354;DHT22;6746;50.892;4.064;2022-08-20T03:13:36;15.50;99.90
13354;DHT22;6746;50.892;4.064;2022-08-20T03:16:14;15.50;99.90
13354;DHT22;6746;50.892;4.064;2022-08-20T03:18:53;15.50;99.90
13354;DHT22;6746;50.892;4.064;2022-08-20T03:21:31;15.50;99.90
13354;DHT22;6746;50.892;4.064;2022-08-20T03:24:09;15.40;99.90
13354;DHT22;6746;50.892;4.064;2022-08-20T03:26:48;15.40;99.90
13354;DHT22;6746;50.892;4.064;2022-08-20T03:29:35;15.40;99.90
13354;DHT22;6746;50.892;4.064;2022-08-20T03:32:23;15.40;99.90
13354;DHT22;6746;50.892;4.064;2022-08-20T03:35:03;15.40;99.90
13354;DHT22;6746;50.892;4.064;2022-08-20T03:37:40;15.30;99.90
13354;DHT22;6746;50.892;4.064;2022-08-20T03:40:28;15.30;99.90
13354;DHT22;6746;50.892;4.064;2022-08-20T03:43:05;15.30;99.90
13354;DHT22;6746;50.892;4.064;2022-08-20T03:45:52;15.20;99.90
13354;DHT22;6746;50.892;4.064;2022-08-20T03:48:40;15.20;99.90
13354;DHT22;6746;50.892;4.064;2022-08-20T03:51:29;15.10;99.90
13354;DHT22;6746;50.892;4.064;2022-08-20T03:54:07;15.10;99.90
13354;DHT22;6746;50.892;4.064;2022-08-20T03:56:45;15.10;99.90
13354;DHT22;6746;50.892;4.064;2022-08-20T03:59:24;15.00;99.90
13354;DHT22;6746;50.892;4.064;2022-08-20T04:02:02;15.00;99.90
13354;DHT22;6746;50.892;4.064;2022-08-20T04:04:43;15.00;99.90
13354;DHT22;6746;50.892;4.064;2022-08-20T04:07:22;14.90;99.90
13354;DHT22;6746;50.892;4.064;2022-08-20T04:10:03;15.00;99.90
13354;DHT22;6746;50.892;4.064;2022-08-20T04:12:38;14.90;99.90
13354;DHT22;6746;50.892;4.064;2022-08-20T04:15:24;14.90;99.90
13354;DHT22;6746;50.892;4.064;2022-08-20T04:18:06;14.80;99.90
13354;DHT22;6746;50.892;4.064;2022-08-20T04:20:49;14.80;99.90
13354;DHT22;6746;50.892;4.064;2022-08-20T04:23:27;14.70;99.90
13354;DHT22;6746;50.892;4.064;2022-08-20T04:26:08;14.80;99.90
13354;DHT22;6746;50.892;4.064;2022-08-20T04:28:46;14.70;99.90
13354;DHT22;6746;50.892;4.064;2022-08-20T04:31:27;14.60;99.90
13354;DHT22;6746;50.892;4.064;2022-08-20T04:34:05;14.60;99.90
13354;DHT22;6746;50.892;4.064;2022-08-20T04:36:46;14.60;99.90
13354;DHT22;6746;50.892;4.064;2022-08-20T04:39:24;14.60;99.90
13354;DHT22;6746;50.892;4.064;2022-08-20T04:42:08;14.60;99.90
13354;DHT22;6746;50.892;4.064;2022-08-20T04:44:46;14.60;99.90
13354;DHT22;6746;50.892;4.064;2022-08-20T04:47:17;14.60;99.90
13354;DHT22;6746;50.892;4.064;2022-08-20T04:49:43;14.50;99.90
13354;DHT22;6746;50.892;4.064;2022-08-20T04:52:14;14.50;99.90
13354;DHT22;6746;50.892;4.064;2022-08-20T04:54:43;14.50;99.90
13354;DHT22;6746;50.892;4.064;2022-08-20T04:57:17;14.50;99.90
13354;DHT22;6746;50.892;4.064;2022-08-20T04:59:46;14.50;99.90
13354;DHT22;6746;50.892;4.064;2022-08-20T05:02:18;14.50;99.90
13354;DHT22;6746;50.892;4.064;2022-08-20T05:04:47;14.60;99.90
13354;DHT22;6746;50.892;4.064;2022-08-20T05:07:39;14.60;99.90
13354;DHT22;6746;50.892;4.064;2022-08-20T05:10:17;14.70;99.90
13354;DHT22;6746;50.892;4.064;2022-08-20T05:13:05;14.70;99.90
13354;DHT22;6746;50.892;4.064;2022-08-20T05:15:43;14.80;99.90
13354;DHT22;6746;50.892;4.064;2022-08-20T05:18:24;14.80;99.90
13354;DHT22;6746;50.892;4.064;2022-08-20T05:20:57;14.90;99.90
13354;DHT22;6746;50.892;4.064;2022-08-20T05:23:26;14.90;99.90
13354;DHT22;6746;50.892;4.064;2022-08-20T05:25:58;15.00;99.90
13354;DHT22;6746;50.892;4.064;2022-08-20T05:28:27;15.00;99.90
13354;DHT22;6746;50.892;4.064;2022-08-20T05:30:59;15.10;99.90
13354;DHT22;6746;50.892;4.064;2022-08-20T05:33:27;15.10;99.90
13354;DHT22;6746;50.892;4.064;2022-08-20T05:36:05;15.20;99.90
13354;DHT22;6746;50.892;4.064;2022-08-20T05:38:33;15.20;99.90
13354;DHT22;6746;50.892;4.064;2022-08-20T05:41:02;15.30;99.90
13354;DHT22;6746;50.892;4.064;2022-08-20T05:43:31;15.40;99.90
13354;DHT22;6746;50.892;4.064;2022-08-20T05:46:09;15.50;99.90
13354;DHT22;6746;50.892;4.064;2022-08-20T05:48:45;15.60;99.90
13354;DHT22;6746;50.892;4.064;2022-08-20T05:51:14;15.70;99.90
13354;DHT22;6746;50.892;4.064;2022-08-20T05:53:43;15.80;99.90
13354;DHT22;6746;50.892;4.064;2022-08-20T05:56:12;15.90;99.90
13354;DHT22;6746;50.892;4.064;2022-08-20T05:58:51;16.00;99.90
13354;DHT22;6746;50.892;4.064;2022-08-20T06:01:30;16.10;99.90
13354;DHT22;6746;50.892;4.064;2022-08-20T06:03:57;16.30;99.90
13354;DHT22;6746;50.892;4.064;2022-08-20T06:06:44;16.40;99.90
13354;DHT22;6746;50.892;4.064;2022-08-20T06:09:16;16.50;99.90
13354;DHT22;6746;50.892;4.064;2022-08-20T06:11:44;16.60;99.90
13354;DHT22;6746;50.892;4.064;2022-08-20T06:14:21;16.70;99.90
13354;DHT22;6746;50.892;4.064;2022-08-20T06:16:50;16.70;99.90
13354;DHT22;6746;50.892;4.064;2022-08-20T06:19:18;16.80;99.90
13354;DHT22;6746;50.892;4.064;2022-08-20T06:21:47;16.90;99.90
13354;DHT22;6746;50.892;4.064;2022-08-20T06:24:21;17.10;99.90
13354;DHT22;6746;50.892;4.064;2022-08-20T06:26:57;17.10;99.90
13354;DHT22;6746;50.892;4.064;2022-08-20T06:29:25;17.20;99.90
13354;DHT22;6746;50.892;4.064;2022-08-20T06:31:54;17.30;99.90
13354;DHT22;6746;50.892;4.064;2022-08-20T06:34:22;17.30;99.90
13354;DHT22;6746;50.892;4.064;2022-08-20T06:36:54;17.40;99.90
13354;DHT22;6746;50.892;4.064;2022-08-20T06:39:23;17.40;99.90
13354;DHT22;6746;50.892;4.064;2022-08-20T06:41:52;17.60;99.90
13354;DHT22;6746;50.892;4.064;2022-08-20T06:44:30;17.80;99.90
13354;DHT22;6746;50.892;4.064;2022-08-20T06:46:59;18.00;99.90
13354;DHT22;6746;50.892;4.064;2022-08-20T06:49:33;18.10;99.90
13354;DHT22;6746;50.892;4.064;2022-08-20T06:52:10;18.30;99.90
13354;DHT22;6746;50.892;4.064;2022-08-20T06:54:42;18.50;99.90
13354;DHT22;6746;50.892;4.064;2022-08-20T06:57:11;18.70;99.90
13354;DHT22;6746;50.892;4.064;2022-08-20T06:59:40;19.00;99.90
13354;DHT22;6746;50.892;4.064;2022-08-20T07:02:09;19.40;99.90
13354;DHT22;6746;50.892;4.064;2022-08-20T07:04:38;19.60;99.90
13354;DHT22;6746;50.892;4.064;2022-08-20T07:07:14;19.80;99.90
13354;DHT22;6746;50.892;4.064;2022-08-20T07:09:44;20.00;99.90
13354;DHT22;6746;50.892;4.064;2022-08-20T07:12:12;20.20;99.90
13354;DHT22;6746;50.892;4.064;2022-08-20T07:14:44;20.40;99.90
13354;DHT22;6746;50.892;4.064;2022-08-20T07:17:13;20.60;99.90
13354;DHT22;6746;50.892;4.064;2022-08-20T07:19:50;20.80;99.90
13354;DHT22;6746;50.892;4.064;2022-08-20T07:22:18;20.90;99.90
13354;DHT22;6746;50.892;4.064;2022-08-20T07:24:50;21.00;99.90
13354;DHT22;6746;50.892;4.064;2022-08-20T07:27:20;21.30;99.90
13354;DHT22;6746;50.892;4.064;2022-08-20T07:30:08;21.50;99.90
13354;DHT22;6746;50.892;4.064;2022-08-20T07:33:04;21.60;99.90
13354;DHT22;6746;50.892;4.064;2022-08-20T07:35:48;21.80;99.90
13354;DHT22;6746;50.892;4.064;2022-08-20T07:38:22;21.70;99.90
13354;DHT22;6746;50.892;4.064;2022-08-20T07:41:04;21.90;99.90
13354;DHT22;6746;50.892;4.064;2022-08-20T07:43:48;22.00;99.90
13354;DHT22;6746;50.892;4.064;2022-08-20T07:46:26;22.10;99.90
13354;DHT22;6746;50.892;4.064;2022-08-20T07:49:13;22.20;99.90
13354;DHT22;6746;50.892;4.064;2022-08-20T07:51:52;22.30;99.90
13354;DHT22;6746;50.892;4.064;2022-08-20T07:54:23;22.60;99.90
13354;DHT22;6746;50.892;4.064;2022-08-20T07:56:51;22.80;99.90
13354;DHT22;6746;50.892;4.064;2022-08-20T07:59:30;23.00;99.90
13354;DHT22;6746;50.892;4.064;2022-08-20T08:02:08;23.20;99.90
13354;DHT22;6746;50.892;4.064;2022-08-20T08:04:46;23.30;99.90
13354;DHT22;6746;50.892;4.064;2022-08-20T08:07:20;23.60;99.90
13354;DHT22;6746;50.892;4.064;2022-08-20T08:09:49;23.90;99.90
13354;DHT22;6746;50.892;4.064;2022-08-20T08:12:18;24.10;99.90
13354;DHT22;6746;50.892;4.064;2022-08-20T08:14:47;24.10;99.90
13354;DHT22;6746;50.892;4.064;2022-08-20T08:17:26;24.00;99.90
13354;DHT22;6746;50.892;4.064;2022-08-20T08:20:04;23.80;99.90
13354;DHT22;6746;50.892;4.064;2022-08-20T08:22:42;23.50;99.90
13354;DHT22;6746;50.892;4.064;2022-08-20T08:25:18;23.10;99.90
13354;DHT22;6746;50.892;4.064;2022-08-20T08:27:47;23.00;99.90
13354;DHT22;6746;50.892;4.064;2022-08-20T08:30:24;23.30;99.90
13354;DHT22;6746;50.892;4.064;2022-08-20T08:32:52;23.50;99.90
13354;DHT22;6746;50.892;4.064;2022-08-20T08:35:47;23.80;99.90
13354;DHT22;6746;50.892;4.064;2022-08-20T08:38:15;24.00;99.90
13354;DHT22;6746;50.892;4.064;2022-08-20T08:40:55;24.20;99.90
13354;DHT22;6746;50.892;4.064;2022-08-20T08:43:32;24.20;99.90
13354;DHT22;6746;50.892;4.064;2022-08-20T08:46:02;24.20;99.90
13354;DHT22;6746;50.892;4.064;2022-08-20T08:48:34;24.30;99.90
13354;DHT22;6746;50.892;4.064;2022-08-20T08:51:11;24.50;99.90
13354;DHT22;6746;50.892;4.064;2022-08-20T08:53:58;24.60;99.90
13354;DHT22;6746;50.892;4.064;2022-08-20T08:56:37;24.60;99.90
13354;DHT22;6746;50.892;4.064;2022-08-20T08:59:15;24.80;99.90
13354;DHT22;6746;50.892;4.064;2022-08-20T09:01:49;24.60;99.90
13354;DHT22;6746;50.892;4.064;2022-08-20T09:04:16;24.50;99.90
13354;DHT22;6746;50.892;4.064;2022-08-20T09:06:49;24.60;99.90
13354;DHT22;6746;50.892;4.064;2022-08-20T09:09:20;24.60;99.90
13354;DHT22;6746;50.892;4.064;2022-08-20T09:12:02;24.30;99.90
13354;DHT22;6746;50.892;4.064;2022-08-20T09:14:30;24.80;99.90
13354;DHT22;6746;50.892;4.064;2022-08-20T09:16:59;24.90;99.90
13354;DHT22;6746;50.892;4.064;2022-08-20T09:19:31;25.20;99.90
13354;DHT22;6746;50.892;4.064;2022-08-20T09:22:05;25.30;99.90
13354;DHT22;6746;50.892;4.064;2022-08-20T09:24:39;25.40;99.90
13354;DHT22;6746;50.892;4.064;2022-08-20T09:27:10;25.50;99.90
13354;DHT22;6746;50.892;4.064;2022-08-20T09:29:38;25.50;99.90
13354;DHT22;6746;50.892;4.064;2022-08-20T09:32:17;25.60;99.90
13354;DHT22;6746;50.892;4.064;2022-08-20T09:34:45;25.40;99.90
13354;DHT22;6746;50.892;4.064;2022-08-20T09:37:26;25.20;99.90
13354;DHT22;6746;50.892;4.064;2022-08-20T09:40:04;25.40;99.90
13354;DHT22;6746;50.892;4.064;2022-08-20T09:42:37;25.50;99.90
13354;DHT22;6746;50.892;4.064;2022-08-20T09:45:15;25.70;99.90
13354;DHT22;6746;50.892;4.064;2022-08-20T09:47:56;25.80;99.90
13354;DHT22;6746;50.892;4.064;2022-08-20T09:50:25;25.90;99.90
13354;DHT22;6746;50.892;4.064;2022-08-20T09:52:57;25.80;99.90
13354;DHT22;6746;50.892;4.064;2022-08-20T09:55:38;25.80;99.90
13354;DHT22;6746;50.892;4.064;2022-08-20T09:58:19;26.00;99.90
13354;DHT22;6746;50.892;4.064;2022-08-20T10:01:05;25.50;99.90
13354;DHT22;6746;50.892;4.064;2022-08-20T10:03:30;25.30;99.90
13354;DHT22;6746;50.892;4.064;2022-08-20T10:05:58;25.30;99.90
13354;DHT22;6746;50.892;4.064;2022-08-20T10:08:32;25.10;99.90
13354;DHT22;6746;50.892;4.064;2022-08-20T10:11:01;24.60;99.90
13354;DHT22;6746;50.892;4.064;2022-08-20T10:13:33;24.40;99.90
13354;DHT22;6746;50.892;4.064;2022-08-20T10:16:02;24.60;99.90
13354;DHT22;6746;50.892;4.064;2022-08-20T10:18:36;24.60;99.90
13354;DHT22;6746;50.892;4.064;2022-08-20T10:21:09;24.70;99.90
13354;DHT22;6746;50.892;4.064;2022-08-20T10:23:42;25.20;99.90
13354;DHT22;6746;50.892;4.064;2022-08-20T10:26:11;25.40;99.90
13354;DHT22;6746;50.892;4.064;2022-08-20T10:28:40;25.90;99.90
13354;DHT22;6746;50.892;4.064;2022-08-20T10:31:10;25.90;99.90
13354;DHT22;6746;50.892;4.064;2022-08-20T10:33:48;26.00;99.90
13354;DHT22;6746;50.892;4.064;2022-08-20T10:36:36;25.50;99.90
13354;DHT22;6746;50.892;4.064;2022-08-20T10:39:04;25.10;99.90
13354;DHT22;6746;50.892;4.064;2022-08-20T10:41:33;25.20;99.90
13354;DHT22;6746;50.892;4.064;2022-08-20T10:44:10;25.50;99.90
13354;DHT22;6746;50.892;4.064;2022-08-20T10:46:39;25.80;99.90
13354;DHT22;6746;50.892;4.064;2022-08-20T10:49:17;25.40;99.90
13354;DHT22;6746;50.892;4.064;2022-08-20T10:51:51;25.50;99.90
13354;DHT22;6746;50.892;4.064;2022-08-20T10:54:19;25.50;99.90
13354;DHT22;6746;50.892;4.064;2022-08-20T10:57:01;25.20;99.90
13354;DHT22;6746;50.892;4.064;2022-08-20T10:59:49;25.10;99.90
13354;DHT22;6746;50.892;4.064;2022-08-20T11:02:27;24.80;99.90
13354;DHT22;6746;50.892;4.064;2022-08-20T11:05:06;25.10;99.90
13354;DHT22;6746;50.892;4.064;2022-08-20T11:07:38;25.40;99.90
13354;DHT22;6746;50.892;4.064;2022-08-20T11:10:06;25.40;99.90
13354;DHT22;6746;50.892;4.064;2022-08-20T11:12:54;25.20;99.90
13354;DHT22;6746;50.892;4.064;2022-08-20T11:15:33;25.10;99.90
13354;DHT22;6746;50.892;4.064;2022-08-20T11:18:11;25.20;99.90
13354;DHT22;6746;50.892;4.064;2022-08-20T11:20:51;25.30;99.90
13354;DHT22;6746;50.892;4.064;2022-08-20T11:23:20;25.20;99.90
13354;DHT22;6746;50.892;4.064;2022-08-20T11:25:58;25.10;99.90
13354;DHT22;6746;50.892;4.064;2022-08-20T11:28:36;24.70;99.90
13354;DHT22;6746;50.892;4.064;2022-08-20T11:31:10;24.90;99.90
13354;DHT22;6746;50.892;4.064;2022-08-20T11:33:39;25.20;99.90
13354;DHT22;6746;50.892;4.064;2022-08-20T11:36:27;25.60;99.90
13354;DHT22;6746;50.892;4.064;2022-08-20T11:38:56;25.60;99.90
13354;DHT22;6746;50.892;4.064;2022-08-20T11:41:28;25.40;99.90
13354;DHT22;6746;50.892;4.064;2022-08-20T11:44:04;25.60;99.90
13354;DHT22;6746;50.892;4.064;2022-08-20T11:46:33;25.70;99.90
13354;DHT22;6746;50.892;4.064;2022-08-20T11:49:11;25.90;99.90
13354;DHT22;6746;50.892;4.064;2022-08-20T11:51:49;26.20;99.90
13354;DHT22;6746;50.892;4.064;2022-08-20T11:54:35;26.00;99.90
13354;DHT22;6746;50.892;4.064;2022-08-20T11:57:04;25.90;99.90
13354;DHT22;6746;50.892;4.064;2022-08-20T11:59:52;25.80;99.90
13354;DHT22;6746;50.892;4.064;2022-08-20T12:02:29;25.60;99.90
13354;DHT22;6746;50.892;4.064;2022-08-20T12:04:57;25.80;99.90
13354;DHT22;6746;50.892;4.064;2022-08-20T12:07:28;25.70;99.90
13354;DHT22;6746;50.892;4.064;2022-08-20T12:09:57;25.80;99.90
13354;DHT22;6746;50.892;4.064;2022-08-20T12:12:26;25.90;99.90
13354;DHT22;6746;50.892;4.064;2022-08-20T12:14:55;25.90;99.90
13354;DHT22;6746;50.892;4.064;2022-08-20T12:17:25;26.20;99.90
13354;DHT22;6746;50.892;4.064;2022-08-20T12:19:53;26.20;99.90
13354;DHT22;6746;50.892;4.064;2022-08-20T12:22:31;26.40;99.90
13354;DHT22;6746;50.892;4.064;2022-08-20T12:25:05;26.20;99.90
13354;DHT22;6746;50.892;4.064;2022-08-20T12:27:35;26.30;99.90
13354;DHT22;6746;50.892;4.064;2022-08-20T12:30:15;25.60;99.90
13354;DHT22;6746;50.892;4.064;2022-08-20T12:32:43;25.10;99.90
13354;DHT22;6746;50.892;4.064;2022-08-20T12:35:15;25.20;99.90
13354;DHT22;6746;50.892;4.064;2022-08-20T12:37:43;25.40;99.90
13354;DHT22;6746;50.892;4.064;2022-08-20T12:40:17;25.40;99.90
13354;DHT22;6746;50.892;4.064;2022-08-20T12:42:44;25.60;99.90
13354;DHT22;6746;50.892;4.064;2022-08-20T12:45:23;25.80;99.90
13354;DHT22;6746;50.892;4.064;2022-08-20T12:48:05;25.80;99.90
13354;DHT22;6746;50.892;4.064;2022-08-20T12:50:33;26.00;99.90
13354;DHT22;6746;50.892;4.064;2022-08-20T12:53:04;26.00;99.90
13354;DHT22;6746;50.892;4.064;2022-08-20T12:55:33;26.10;99.90
13354;DHT22;6746;50.892;4.064;2022-08-20T12:58:07;26.20;99.90
13354;DHT22;6746;50.892;4.064;2022-08-20T13:00:37;26.30;99.90
13354;DHT22;6746;50.892;4.064;2022-08-20T13:03:14;25.80;99.90
13354;DHT22;6746;50.892;4.064;2022-08-20T13:05:42;26.00;99.90
13354;DHT22;6746;50.892;4.064;2022-08-20T13:08:11;25.70;99.90
13354;DHT22;6746;50.892;4.064;2022-08-20T13:10:48;26.00;99.90
13354;DHT22;6746;50.892;4.064;2022-08-20T13:13:17;26.00;99.90
13354;DHT22;6746;50.892;4.064;2022-08-20T13:15:55;26.30;99.90
13354;DHT22;6746;50.892;4.064;2022-08-20T13:18:33;26.40;99.90
13354;DHT22;6746;50.892;4.064;2022-08-20T13:21:11;26.50;99.90
13354;DHT22;6746;50.892;4.064;2022-08-20T13:23:48;26.10;99.90
13354;DHT22;6746;50.892;4.064;2022-08-20T13:26:17;25.90;99.90
13354;DHT22;6746;50.892;4.064;2022-08-20T13:28:55;25.90;99.90
13354;DHT22;6746;50.892;4.064;2022-08-20T13:31:23;26.10;99.90
13354;DHT22;6746;50.892;4.064;2022-08-20T13:33:52;25.90;99.90
13354;DHT22;6746;50.892;4.064;2022-08-20T13:36:30;25.60;99.90
13354;DHT22;6746;50.892;4.064;2022-08-20T13:38:59;25.40;99.90
13354;DHT22;6746;50.892;4.064;2022-08-20T13:41:37;25.60;99.90
13354;DHT22;6746;50.892;4.064;2022-08-20T13:44:15;25.40;99.90
13354;DHT22;6746;50.892;4.064;2022-08-20T13:47:23;25.30;99.90
13354;DHT22;6746;50.892;4.064;2022-08-20T13:50:04;25.20;99.90
13354;DHT22;6746;50.892;4.064;2022-08-20T13:52:28;25.30;99.90
13354;DHT22;6746;50.892;4.064;2022-08-20T13:55:06;25.40;99.90
13354;DHT22;6746;50.892;4.064;2022-08-20T13:57:40;25.50;99.90
13354;DHT22;6746;50.892;4.064;2022-08-20T14:00:13;25.80;99.90
13354;DHT22;6746;50.892;4.064;2022-08-20T14:02:58;26.20;99.90
13354;DHT22;6746;50.892;4.064;2022-08-20T14:05:36;25.70;99.90
13354;DHT22;6746;50.892;4.064;2022-08-20T14:08:11;25.40;99.90
13354;DHT22;6746;50.892;4.064;2022-08-20T14:10:38;25.50;99.90
13354;DHT22;6746;50.892;4.064;2022-08-20T14:13:17;25.60;99.90
13354;DHT22;6746;50.892;4.064;2022-08-20T14:15:48;25.70;99.90
13354;DHT22;6746;50.892;4.064;2022-08-20T14:18:17;25.20;99.90
13354;DHT22;6746;50.892;4.064;2022-08-20T14:20:55;25.10;99.90
13354;DHT22;6746;50.892;4.064;2022-08-20T14:23:33;25.20;99.90
13354;DHT22;6746;50.892;4.064;2022-08-20T14:26:11;25.20;99.90
13354;DHT22;6746;50.892;4.064;2022-08-20T14:28:40;25.70;99.90
13354;DHT22;6746;50.892;4.064;2022-08-20T14:31:26;25.90;99.90
13354;DHT22;6746;50.892;4.064;2022-08-20T14:33:55;26.00;99.90
13354;DHT22;6746;50.892;4.064;2022-08-20T14:36:34;26.30;99.90
13354;DHT22;6746;50.892;4.064;2022-08-20T14:39:03;26.20;99.90
13354;DHT22;6746;50.892;4.064;2022-08-20T14:41:41;25.90;99.90
13354;DHT22;6746;50.892;4.064;2022-08-20T14:44:19;25.30;99.90
13354;DHT22;6746;50.892;4.064;2022-08-20T14:47:08;25.10;99.90
13354;DHT22;6746;50.892;4.064;2022-08-20T14:49:36;25.00;99.90
13354;DHT22;6746;50.892;4.064;2022-08-20T14:52:15;25.30;99.90
13354;DHT22;6746;50.892;4.064;2022-08-20T14:54:52;25.40;99.90
13354;DHT22;6746;50.892;4.064;2022-08-20T14:57:30;25.10;99.90
13354;DHT22;6746;50.892;4.064;2022-08-20T15:00:03;24.90;99.90
13354;DHT22;6746;50.892;4.064;2022-08-20T15:02:31;24.80;99.90
13354;DHT22;6746;50.892;4.064;2022-08-20T15:05:08;24.80;99.90
13354;DHT22;6746;50.892;4.064;2022-08-20T15:07:39;24.90;99.90
13354;DHT22;6746;50.892;4.064;2022-08-20T15:10:07;25.10;99.90
13354;DHT22;6746;50.892;4.064;2022-08-20T15:12:35;25.00;99.90
13354;DHT22;6746;50.892;4.064;2022-08-20T15:15:14;24.90;99.90
13354;DHT22;6746;50.892;4.064;2022-08-20T15:17:46;25.00;99.90
13354;DHT22;6746;50.892;4.064;2022-08-20T15:20:14;25.30;99.90
13354;DHT22;6746;50.892;4.064;2022-08-20T15:22:52;25.40;99.90
13354;DHT22;6746;50.892;4.064;2022-08-20T15:25:31;25.50;99.90
13354;DHT22;6746;50.892;4.064;2022-08-20T15:28:11;25.50;99.90
13354;DHT22;6746;50.892;4.064;2022-08-20T15:30:40;25.40;99.90
13354;DHT22;6746;50.892;4.064;2022-08-20T15:33:11;25.20;99.90
13354;DHT22;6746;50.892;4.064;2022-08-20T15:35:50;25.10;99.90
13354;DHT22;6746;50.892;4.064;2022-08-20T15:38:21;24.90;99.90
13354;DHT22;6746;50.892;4.064;2022-08-20T15:40:50;24.60;99.90
13354;DHT22;6746;50.892;4.064;2022-08-20T15:43:38;24.70;99.90
13354;DHT22;6746;50.892;4.064;2022-08-20T15:46:17;24.90;99.90
13354;DHT22;6746;50.892;4.064;2022-08-20T15:48:49;25.10;99.90
13354;DHT22;6746;50.892;4.064;2022-08-20T15:51:36;25.30;99.90
13354;DHT22;6746;50.892;4.064;2022-08-20T15:54:14;25.30;99.90
13354;DHT22;6746;50.892;4.064;2022-08-20T15:57:10;25.10;99.90
13354;DHT22;6746;50.892;4.064;2022-08-20T15:59:55;25.00;99.90
13354;DHT22;6746;50.892;4.064;2022-08-20T16:11:50;25.10;99.90
13354;DHT22;6746;50.892;4.064;2022-08-20T16:14:22;25.30;99.90
13354;DHT22;6746;50.892;4.064;2022-08-20T16:17:05;25.30;99.90
13354;DHT22;6746;50.892;4.064;2022-08-20T16:22:26;25.30;99.90
13354;DHT22;6746;50.892;4.064;2022-08-20T16:24:56;25.10;99.90
13354;DHT22;6746;50.892;4.064;2022-08-20T16:30:49;25.00;99.90
13354;DHT22;6746;50.892;4.064;2022-08-20T16:36:06;24.90;99.90
13354;DHT22;6746;50.892;4.064;2022-08-20T16:38:47;24.80;99.90
13354;DHT22;6746;50.892;4.064;2022-08-20T16:41:20;24.80;99.90
13354;DHT22;6746;50.892;4.064;2022-08-20T16:44:20;24.80;99.90
13354;DHT22;6746;50.892;4.064;2022-08-20T16:46:54;24.90;99.90
13354;DHT22;6746;50.892;4.064;2022-08-20T16:49:31;24.80;99.90
13354;DHT22;6746;50.892;4.064;2022-08-20T16:52:09;24.70;99.90
13354;DHT22;6746;50.892;4.064;2022-08-20T16:54:43;24.70;99.90
13354;DHT22;6746;50.892;4.064;2022-08-20T16:57:12;24.60;99.90
13354;DHT22;6746;50.892;4.064;2022-08-20T17:02:22;24.50;99.90
13354;DHT22;6746;50.892;4.064;2022-08-20T17:04:59;24.40;99.90